Time;durP1;ratioP1;P1;durP2;ratioP2;P2;SDS_P1;SDS_P2;PMS_P1;PMS_P2;Temp;Humidity;BMP_temperature;BMP_pressure;BME280_temperature;BME280_humidity;BME280_pressure;Samples;Min_cycle;Max_cycle;Signal;HPM_P1;HPM_P2
2022/08/02 00:00:05;;;;;;;6.90;3.97;;;;;;;18.62;100.00;96668.63;4960987;28;20232;-81
2022/08/02 00:02:32;;;;;;;5.67;3.73;;;;;;;18.52;100.00;96668.59;4964349;28;20209;-80
2022/08/02 00:04:59;;;;;;;23.93;4.50;;;;;;;18.49;100.00;96664.47;4959372;28;20245;-81
2022/08/02 00:07:26;;;;;;;6.90;4.23;;;;;;;18.61;100.00;96671.63;4961639;28;20201;-81
2022/08/02 00:09:55;;;;;;;7.23;3.93;;;;;;;18.60;100.00;96670.00;4959262;28;20256;-81
2022/08/02 00:12:22;;;;;;;6.83;3.87;;;;;;;18.62;100.00;96673.28;4960412;28;20201;-81
2022/08/02 00:14:49;;;;;;;6.30;4.37;;;;;;;18.40;100.00;96671.56;4964261;28;20220;-81
2022/08/02 00:17:17;;;;;;;5.03;3.83;;;;;;;18.18;100.00;96659.25;4963058;28;20224;-81
2022/08/02 00:19:44;;;;;;;6.60;4.23;;;;;;;18.20;100.00;96641.50;4966642;28;20243;-81
2022/08/02 00:22:11;;;;;;;5.80;4.33;;;;;;;18.14;100.00;96642.56;4969119;28;20304;-81
2022/08/02 00:24:38;;;;;;;7.13;4.30;;;;;;;18.19;100.00;96625.38;4963553;28;20336;-81
2022/08/02 00:27:07;;;;;;;6.60;3.67;;;;;;;18.20;100.00;96629.75;4971533;28;20215;-81
2022/08/02 00:29:35;;;;;;;4.47;3.30;;;;;;;18.19;100.00;96634.38;4980448;28;20219;-81
2022/08/02 00:32:03;;;;;;;5.03;3.80;;;;;;;18.22;100.00;96627.53;4961615;28;20211;-81
2022/08/02 00:34:30;;;;;;;6.00;3.60;;;;;;;18.35;100.00;96619.63;4966953;28;20300;-81
2022/08/02 00:36:57;;;;;;;4.40;3.30;;;;;;;18.42;100.00;96613.88;4970252;28;20300;-81
2022/08/02 00:39:24;;;;;;;4.93;3.40;;;;;;;18.42;100.00;96613.88;4966025;28;20216;-81
2022/08/02 00:41:53;;;;;;;7.10;3.43;;;;;;;18.37;100.00;96601.03;4973847;28;20276;-81
2022/08/02 00:44:21;;;;;;;5.93;3.27;;;;;;;18.32;100.00;96608.41;4967246;28;20312;-81
2022/08/02 00:46:49;;;;;;;7.30;3.33;;;;;;;18.25;100.00;96613.34;4962667;28;20300;-81
2022/08/02 00:49:16;;;;;;;4.83;3.40;;;;;;;18.24;100.00;96606.22;4963169;28;20212;-81
2022/08/02 00:51:43;;;;;;;8.23;3.70;;;;;;;18.10;100.00;96600.50;4962060;28;20221;-81
2022/08/02 00:54:10;;;;;;;5.67;3.67;;;;;;;17.99;100.00;96596.91;4967864;28;20284;-81
2022/08/02 00:56:37;;;;;;;8.43;4.30;;;;;;;17.95;100.00;96601.25;4960608;28;20232;-81
2022/08/02 00:59:04;;;;;;;4.57;4.13;;;;;;;17.87;100.00;96595.50;4967573;28;20209;-81
2022/08/02 01:01:39;;;;;;;7.00;4.37;;;;;;;17.85;100.00;96598.53;4965278;28;20217;-81
2022/08/02 01:04:07;;;;;;;5.67;4.03;;;;;;;17.88;100.00;96584.31;4959103;28;20235;-81
2022/08/02 01:06:37;;;;;;;5.17;3.90;;;;;;;17.76;100.00;96578.31;4965433;28;21117;-81
2022/08/02 01:09:05;;;;;;;7.57;4.10;;;;;;;17.72;100.00;96586.22;4969589;28;20204;-81
2022/08/02 01:11:33;;;;;;;5.53;3.57;;;;;;;17.72;100.00;96588.13;4967387;28;20201;-81
2022/08/02 01:14:04;;;;;;;4.57;2.90;;;;;;;17.80;100.00;96597.69;4968701;28;20209;-81
2022/08/02 01:16:38;;;;;;;4.33;3.17;;;;;;;17.86;100.00;96586.53;4961352;28;20212;-81
2022/08/02 01:19:20;;;;;;;3.83;3.10;;;;;;;17.81;100.00;96569.28;4967968;28;20205;-81
2022/08/02 01:22:06;;;;;;;3.80;2.73;;;;;;;17.88;100.00;96576.13;4965466;28;20218;-81
2022/08/02 01:25:04;;;;;;;4.27;2.80;;;;;;;17.78;100.00;96568.72;4958605;28;20241;-81
2022/08/02 01:27:43;;;;;;;3.97;2.40;;;;;;;17.86;100.00;96572.88;4967299;28;20212;-81
2022/08/02 01:30:12;;;;;;;3.53;2.30;;;;;;;17.78;100.00;96565.19;4966873;28;20296;-81
2022/08/02 01:32:46;;;;;;;2.30;2.10;;;;;;;17.83;100.00;96567.13;4969798;28;20209;-81
2022/08/02 01:35:17;;;;;;;3.30;2.47;;;;;;;17.76;100.00;96567.38;4966179;28;20204;-81
2022/08/02 01:37:51;;;;;;;3.90;2.30;;;;;;;17.73;100.00;96562.44;4956754;28;20220;-81
2022/08/02 01:40:22;;;;;;;3.63;2.33;;;;;;;17.76;100.00;96567.38;4967196;28;20236;-81
2022/08/02 01:42:53;;;;;;;2.30;2.00;;;;;;;17.73;100.00;96546.88;4965310;28;20264;-81
2022/08/02 01:45:24;;;;;;;2.93;1.90;;;;;;;17.72;100.00;96547.97;4962188;28;20346;-81
2022/08/02 01:47:53;;;;;;;3.70;2.00;;;;;;;17.71;100.00;96532.66;4961872;28;20315;-81
2022/08/02 01:50:26;;;;;;;2.20;1.80;;;;;;;17.77;100.00;96544.44;4968662;28;20234;-81
2022/08/02 01:52:56;;;;;;;4.43;1.80;;;;;;;17.83;100.00;96540.63;4967566;28;20213;-81
2022/08/02 01:55:29;;;;;;;3.77;2.07;;;;;;;17.75;100.00;96543.88;4964848;28;20204;-81
2022/08/02 01:57:59;;;;;;;2.83;1.67;;;;;;;17.71;100.00;96540.03;4964097;28;20233;-81
2022/08/02 02:00:32;;;;;;;2.20;2.00;;;;;;;17.69;100.00;96523.91;4957760;28;20223;-81
2022/08/02 02:03:02;;;;;;;2.70;1.87;;;;;;;17.59;100.00;96532.09;4969364;28;20216;-81
2022/08/02 02:05:32;;;;;;;4.53;2.00;;;;;;;17.59;100.00;96528.53;4964341;28;20233;-81
2022/08/02 02:08:01;;;;;;;2.87;2.17;;;;;;;17.66;100.00;96537.31;4965372;28;20205;-81
2022/08/02 02:10:31;;;;;;;2.40;2.20;;;;;;;17.62;100.00;96528.00;4962050;28;20212;-81
2022/08/02 02:13:03;;;;;;;2.63;2.10;;;;;;;17.63;100.00;96529.66;4955963;28;20225;-82
2022/08/02 02:15:31;;;;;;;3.57;1.87;;;;;;;17.58;100.00;96511.34;4964491;28;20209;-81
2022/08/02 02:18:00;;;;;;;2.87;1.70;;;;;;;17.55;100.00;96516.50;4969029;28;20204;-81
2022/08/02 02:20:28;;;;;;;2.90;1.90;;;;;;;17.55;100.00;96505.59;4963023;28;20292;-81
2022/08/02 02:22:55;;;;;;;1.83;1.70;;;;;;;17.55;100.00;96500.13;4961621;28;20210;-81
2022/08/02 02:25:24;;;;;;;3.07;1.77;;;;;;;17.60;100.00;96503.69;4964355;28;20368;-81
2022/08/02 02:28:02;;;;;;;2.10;1.70;;;;;;;17.64;100.00;96501.25;4962057;28;20208;-81
2022/08/02 02:30:32;;;;;;;3.23;1.83;;;;;;;17.56;100.00;96491.66;4967934;28;20299;-81
2022/08/02 02:33:02;;;;;;;2.63;1.80;;;;;;;17.54;100.00;96498.47;4968388;28;20348;-81
2022/08/02 02:35:32;;;;;;;2.93;1.77;;;;;;;17.52;100.00;96481.56;4963495;28;20321;-81
2022/08/02 02:38:02;;;;;;;1.60;1.50;;;;;;;17.57;100.00;96489.75;4959981;28;20512;-81
2022/08/02 02:40:29;;;;;;;2.50;1.80;;;;;;;17.54;100.00;96482.09;4956846;28;20241;-81
2022/08/02 02:42:58;;;;;;;2.30;1.90;;;;;;;17.60;100.00;96481.03;4962886;28;20300;-81
2022/08/02 02:45:25;;;;;;;2.80;1.80;;;;;;;17.55;100.00;96473.63;4965720;28;20229;-81
2022/08/02 02:47:56;;;;;;;1.70;1.57;;;;;;;17.60;100.00;96470.94;4968502;28;20212;-81
2022/08/02 02:50:25;;;;;;;3.37;1.70;;;;;;;17.57;100.00;96468.72;4957988;28;20308;-81
2022/08/02 02:52:53;;;;;;;2.30;1.57;;;;;;;17.55;100.00;96460.00;4972185;28;20257;-81
2022/08/02 02:55:23;;;;;;;2.50;1.77;;;;;;;17.61;100.00;96467.09;4962632;28;20205;-81
2022/08/02 02:57:51;;;;;;;2.23;1.60;;;;;;;17.58;100.00;96464.09;4967494;28;20329;-81
2022/08/02 03:01:26;;;;;;;2.37;1.80;;;;;;;17.56;100.00;96460.81;4964348;28;20189;-81
2022/08/02 03:03:07;;;;;;;4.53;1.83;;;;;;;17.60;100.00;96449.09;4981797;28;20253;-81
2022/08/02 03:05:34;;;;;;;3.50;1.37;;;;;;;17.62;100.00;96467.94;4963107;28;20315;-81
2022/08/02 03:08:01;;;;;;;3.23;1.50;;;;;;;17.65;100.00;96461.94;4957122;28;20209;-81
2022/08/02 03:10:29;;;;;;;3.10;1.60;;;;;;;17.59;100.00;96452.91;4964826;28;20204;-81
2022/08/02 03:12:57;;;;;;;2.90;1.90;;;;;;;17.60;100.00;96453.72;4962433;28;20201;-81
2022/08/02 03:15:28;;;;;;;2.07;1.50;;;;;;;17.53;100.00;96447.69;4965746;28;20211;-81
2022/08/02 03:17:56;;;;;;;1.53;1.43;;;;;;;17.50;100.00;96459.19;4966348;28;20205;-81
2022/08/02 03:20:24;;;;;;;2.60;1.70;;;;;;;17.44;100.00;96455.59;4965114;28;20236;-81
2022/08/02 03:22:51;;;;;;;2.30;1.53;;;;;;;17.51;100.00;96455.34;4965377;28;20248;-81
2022/08/02 03:25:18;;;;;;;2.93;1.60;;;;;;;17.44;100.00;96441.94;4957560;28;20299;-81
2022/08/02 03:27:46;;;;;;;2.37;1.50;;;;;;;17.44;100.00;96446.63;4968016;28;20215;-81
2022/08/02 03:30:15;;;;;;;2.00;1.50;;;;;;;17.40;100.00;96452.59;4960943;28;20267;-81
2022/08/02 03:32:47;;;;;;;1.60;1.50;;;;;;;17.37;100.00;96447.69;4958459;28;20209;-80
2022/08/02 03:35:16;;;;;;;3.60;1.30;;;;;;;17.38;100.00;96440.31;4955456;28;20204;-80
2022/08/02 03:37:45;;;;;;;1.83;1.50;;;;;;;17.37;100.00;96450.41;4960042;28;20216;-80
2022/08/02 03:40:13;;;;;;;2.23;1.60;;;;;;;17.32;100.00;96441.41;4962103;28;20204;-80
2022/08/02 03:42:41;;;;;;;2.20;1.53;;;;;;;17.29;100.00;96441.94;4961535;28;20215;-80
2022/08/02 03:45:10;;;;;;;2.77;1.60;;;;;;;17.28;100.00;96432.94;4960986;28;20323;-79
2022/08/02 03:47:39;;;;;;;4.33;1.50;;;;;;;17.20;100.00;96433.47;4959902;28;20268;-80
2022/08/02 03:50:11;;;;;;;2.63;1.73;;;;;;;17.23;100.00;96434.84;4976208;28;20213;-80
2022/08/02 03:52:41;;;;;;;4.97;1.87;;;;;;;17.13;100.00;96434.81;4963897;28;20220;-80
2022/08/02 03:55:11;;;;;;;2.20;1.43;;;;;;;17.13;100.00;96432.91;4964595;28;20311;-80
2022/08/02 03:57:39;;;;;;;2.87;1.50;;;;;;;17.15;100.00;96444.38;4967760;28;20238;-80
2022/08/02 04:00:08;;;;;;;1.60;1.47;;;;;;;17.15;100.00;96444.38;4963309;28;20208;-80
2022/08/02 04:02:39;;;;;;;2.90;1.93;;;;;;;17.21;100.00;96446.00;4962744;28;20301;-80
2022/08/02 04:05:07;;;;;;;1.97;1.77;;;;;;;17.23;100.00;96443.84;4967032;28;20229;-80
2022/08/02 04:07:34;;;;;;;3.00;1.80;;;;;;;17.31;100.00;96445.22;4965766;28;20287;-80
2022/08/02 04:10:01;;;;;;;3.00;1.53;;;;;;;17.24;100.00;96447.41;4975741;28;20282;-80
2022/08/02 04:12:29;;;;;;;4.57;1.30;;;;;;;17.31;100.00;96450.69;4955457;28;20206;-80
2022/08/02 04:14:57;;;;;;;1.90;1.20;;;;;;;17.18;100.00;96441.09;4964636;28;20212;-80
2022/08/02 04:17:25;;;;;;;1.40;1.20;;;;;;;17.24;100.00;96442.75;4960587;28;20212;-80
2022/08/02 04:19:58;;;;;;;2.13;1.57;;;;;;;17.20;100.00;96449.84;4967958;28;20233;-80
2022/08/02 04:22:29;;;;;;;1.73;1.40;;;;;;;17.12;100.00;96444.91;4962344;28;20244;-80
2022/08/02 04:24:59;;;;;;;1.43;1.33;;;;;;;17.14;100.00;96456.38;4966661;28;20221;-79
2022/08/02 04:27:27;;;;;;;2.10;1.90;;;;;;;17.01;100.00;96449.50;4963873;28;20255;-80
2022/08/02 04:29:57;;;;;;;2.03;1.50;;;;;;;17.10;100.00;96449.81;4967290;28;20201;-79
2022/08/02 04:32:25;;;;;;;1.83;1.40;;;;;;;17.08;100.00;96453.91;4967994;28;20211;-79
2022/08/02 04:34:52;;;;;;;1.97;1.43;;;;;;;17.04;100.00;96453.63;4980894;28;20223;-79
2022/08/02 04:37:19;;;;;;;2.00;1.43;;;;;;;17.04;100.00;96445.44;4956713;28;20219;-79
2022/08/02 04:39:46;;;;;;;2.37;1.57;;;;;;;17.00;100.00;96453.34;4958728;28;20209;-80
2022/08/02 04:42:20;;;;;;;2.90;1.57;;;;;;;17.02;100.00;96448.41;4966981;28;20212;-80
2022/08/02 04:44:48;;;;;;;2.37;2.17;;;;;;;17.05;100.00;96452.53;4963756;28;20295;-80
2022/08/02 04:47:16;;;;;;;1.90;1.60;;;;;;;17.02;100.00;96453.06;4960517;28;20263;-80
2022/08/02 04:49:44;;;;;;;1.87;1.60;;;;;;;17.03;100.00;96460.97;4978259;28;20213;-80
2022/08/02 04:52:11;;;;;;;1.73;1.50;;;;;;;17.06;100.00;96453.34;4961860;28;20232;-80
2022/08/02 04:54:38;;;;;;;1.87;1.40;;;;;;;17.03;100.00;96450.06;4965187;28;20197;-80
2022/08/02 04:57:53;;;;;;;2.70;1.83;;;;;;;17.13;100.00;96462.91;4978199;28;20231;-81
2022/08/02 04:59:53;;;;;;;3.63;1.70;;;;;;;17.09;100.00;96459.09;4962460;28;20299;-80
2022/08/02 05:02:21;;;;;;;1.87;1.50;;;;;;;17.06;100.00;96456.91;4961436;28;20228;-80
2022/08/02 05:04:48;;;;;;;2.70;1.47;;;;;;;17.08;100.00;96468.38;4963102;28;20232;-80
2022/08/02 05:07:15;;;;;;;3.80;1.90;;;;;;;17.04;100.00;96467.25;4956648;28;20287;-80
2022/08/02 05:09:42;;;;;;;4.50;1.80;;;;;;;17.04;100.00;96461.78;4957927;28;20213;-80
2022/08/02 05:12:09;;;;;;;3.57;1.60;;;;;;;17.08;100.00;96470.28;4964889;28;20284;-80
2022/08/02 05:14:36;;;;;;;3.10;1.90;;;;;;;17.12;100.00;96471.38;4963760;28;20216;-80
2022/08/02 05:17:03;;;;;;;3.30;1.60;;;;;;;17.13;100.00;96470.28;4959945;28;20213;-80
2022/08/02 05:19:33;;;;;;;2.93;1.70;;;;;;;17.22;100.00;96469.50;4963848;28;20241;-80
2022/08/02 05:22:00;;;;;;;2.40;1.47;;;;;;;17.20;100.00;96459.94;4977621;28;20209;-81
2022/08/02 05:24:27;;;;;;;2.47;1.60;;;;;;;17.06;100.00;96459.63;4961087;28;20205;-81
2022/08/02 05:26:54;;;;;;;3.23;1.40;;;;;;;17.00;100.00;96460.72;4960324;28;20229;-80
2022/08/02 05:29:21;;;;;;;2.07;1.60;;;;;;;17.05;100.00;96468.06;4957153;28;20205;-80
2022/08/02 05:31:49;;;;;;;1.67;1.50;;;;;;;17.04;100.00;96461.78;4954774;28;20205;-81
2022/08/02 05:34:16;;;;;;;3.53;1.50;;;;;;;17.10;100.00;96463.44;4965211;28;20212;-80
2022/08/02 05:36:44;;;;;;;1.90;1.40;;;;;;;16.95;100.00;96461.50;4965989;28;20212;-80
2022/08/02 05:39:11;;;;;;;1.80;1.40;;;;;;;16.98;100.00;96451.97;4966303;28;20205;-80
2022/08/02 05:41:38;;;;;;;3.07;1.70;;;;;;;16.92;100.00;96455.78;4961147;28;20219;-80
2022/08/02 05:44:05;;;;;;;5.73;1.80;;;;;;;16.96;100.00;96456.88;4960151;28;20201;-80
2022/08/02 05:46:32;;;;;;;1.40;1.30;;;;;;;16.99;100.00;96459.06;4956640;28;20244;-80
2022/08/02 05:49:00;;;;;;;3.67;1.60;;;;;;;17.02;100.00;96451.16;4961593;28;20198;-81
2022/08/02 05:51:32;;;;;;;4.17;1.93;;;;;;;17.01;100.00;96456.91;4968688;28;20295;-80
2022/08/02 05:54:12;;;;;;;5.73;2.53;;;;;;;17.01;100.00;96456.91;4981038;28;20225;-80
2022/08/02 05:56:47;;;;;;;1.77;1.67;;;;;;;16.96;100.00;96462.31;4957175;28;20236;-78
2022/08/02 05:59:25;;;;;;;4.13;1.80;;;;;;;16.90;100.00;96460.66;4963469;28;20208;-79
2022/08/02 06:01:57;;;;;;;3.57;1.60;;;;;;;17.06;100.00;96461.53;4979233;28;20268;-78
2022/08/02 06:04:29;;;;;;;1.50;1.40;;;;;;;17.09;100.00;96455.56;4968282;28;20220;-79
2022/08/02 06:07:02;;;;;;;1.93;1.63;;;;;;;17.15;100.00;96458.03;4965299;28;20232;-79
2022/08/02 06:09:31;;;;;;;2.40;1.83;;;;;;;17.14;100.00;96459.09;4979789;28;20263;-79
2022/08/02 06:12:00;;;;;;;2.20;1.47;;;;;;;17.19;100.00;96456.38;4964197;28;20233;-79
2022/08/02 06:14:28;;;;;;;1.70;1.60;;;;;;;17.19;100.00;96459.09;4962689;28;20216;-79
2022/08/02 06:16:56;;;;;;;4.80;1.50;;;;;;;17.24;100.00;96450.13;4959413;28;20205;-79
2022/08/02 06:19:25;;;;;;;3.57;1.60;;;;;;;17.15;100.00;96440.81;4966937;28;20251;-79
2022/08/02 06:21:52;;;;;;;2.30;1.57;;;;;;;17.16;100.00;96456.94;4963667;28;20202;-79
2022/08/02 06:24:19;;;;;;;2.53;1.63;;;;;;;17.21;100.00;96448.75;4961392;28;20220;-79
2022/08/02 06:26:51;;;;;;;2.90;1.70;;;;;;;17.21;100.00;96451.47;4965363;28;20221;-79
2022/08/02 06:29:20;;;;;;;1.47;1.37;;;;;;;17.35;100.00;96441.66;4975695;28;20335;-79
2022/08/02 06:31:48;;;;;;;2.33;1.70;;;;;;;17.45;100.00;96440.88;4977400;28;20215;-79
2022/08/02 06:34:15;;;;;;;2.07;1.60;;;;;;;17.55;100.00;96450.97;4964841;28;20208;-79
2022/08/02 06:36:50;;;;;;;4.57;1.90;;;;;;;17.65;100.00;96445.56;4975497;28;20211;-79
2022/08/02 06:39:22;;;;;;;3.90;1.40;;;;;;;17.77;100.00;96455.13;4976178;28;20219;-79
2022/08/02 06:41:54;;;;;;;2.57;1.60;;;;;;;17.85;100.00;96451.03;4972060;28;20219;-79
2022/08/02 06:44:24;;;;;;;1.83;1.60;;;;;;;17.99;100.00;96460.31;4962978;28;20209;-80
2022/08/02 06:46:52;;;;;;;2.17;1.70;;;;;;;18.05;100.00;96453.72;4971361;28;20224;-79
2022/08/02 06:49:19;;;;;;;1.93;1.70;;;;;;;18.07;100.00;96446.09;4966845;28;20255;-79
2022/08/02 06:51:46;;;;;;;2.47;1.80;;;;;;;18.10;100.00;96448.28;4965632;28;20357;-80
2022/08/02 06:54:17;;;;;;;3.13;1.67;;;;;;;18.06;100.00;96441.72;4972378;28;20263;-80
2022/08/02 06:56:45;;;;;;;2.40;1.63;;;;;;;17.99;100.00;96438.44;4960394;28;20232;-80
2022/08/02 06:59:13;;;;;;;2.30;1.57;;;;;;;17.90;100.00;96429.16;4965964;28;20216;-79
2022/08/02 07:01:41;;;;;;;1.70;1.60;;;;;;;17.92;100.00;96434.38;4965049;28;20205;-80
2022/08/02 07:04:09;;;;;;;1.83;1.70;;;;;;;17.96;100.00;96436.25;4966057;28;20300;-79
2022/08/02 07:06:36;;;;;;;2.53;1.67;;;;;;;18.02;100.00;96437.09;4960322;28;20225;-80
2022/08/02 07:09:04;;;;;;;2.63;1.70;;;;;;;18.02;100.00;96421.50;4965634;28;20208;-79
2022/08/02 07:11:31;;;;;;;1.73;1.63;;;;;;;18.02;100.00;96429.72;4967061;28;20300;-81
2022/08/02 07:13:58;;;;;;;4.63;1.70;;;;;;;18.07;100.00;96432.44;4963904;28;20201;-80
2022/08/02 07:16:27;;;;;;;3.87;1.70;;;;;;;18.20;100.00;96427.50;4962315;28;20210;-80
2022/08/02 07:18:54;;;;;;;2.10;1.90;;;;;;;18.28;100.00;96421.47;4960348;28;20205;-81
2022/08/02 07:21:21;;;;;;;3.40;2.10;;;;;;;18.30;100.00;96419.25;4960319;28;20236;-80
2022/08/02 07:23:48;;;;;;;2.50;1.83;;;;;;;18.31;100.00;96420.88;4958307;28;20196;-80
2022/08/02 07:26:15;;;;;;;7.73;1.90;;;;;;;18.63;100.00;96421.34;4967217;28;20248;-80
2022/08/02 07:28:42;;;;;;;2.87;1.80;;;;;;;19.06;100.00;96421.72;4966548;28;20204;-80
2022/08/02 07:31:09;;;;;;;3.87;2.17;;;;;;;19.38;100.00;96419.34;4974470;28;20205;-80
2022/08/02 07:33:37;;;;;;;5.20;2.27;;;;;;;19.71;100.00;96416.94;4969573;28;20272;-80
2022/08/02 07:36:05;;;;;;;2.65;1.60;;;;;;;19.94;100.00;96421.66;4962627;28;20302;-80
2022/08/02 07:38:32;;;;;;;3.17;1.83;;;;;;;20.17;100.00;96415.41;4968512;28;20239;-80
2022/08/02 07:40:59;;;;;;;3.85;1.75;;;;;;;20.48;100.00;96423.34;4972254;28;20222;-80
2022/08/02 07:43:27;;;;;;;2.35;1.90;;;;;;;20.68;100.00;96415.69;4966518;28;20204;-80
2022/08/02 07:45:54;;;;;;;3.08;1.90;;;;;;;20.82;100.00;96409.50;4965047;28;20229;-80
2022/08/02 07:48:21;;;;;;;6.60;2.33;;;;;;;20.82;100.00;96418.56;4967083;28;20236;-80
2022/08/02 07:50:49;;;;;;;2.88;2.00;;;;;;;20.85;100.00;96415.19;4966175;28;20205;-81
2022/08/02 07:53:16;;;;;;;2.22;2.03;;;;;;;20.72;100.00;96410.44;4975994;28;20271;-81
2022/08/02 07:55:43;;;;;;;3.15;1.65;;;;;;;20.65;100.00;96409.97;4972675;28;20207;-81
2022/08/02 07:58:12;;;;;;;3.70;1.77;;;;;;;20.73;100.00;96412.06;4974529;28;20197;-80
2022/08/02 08:00:39;;;;;;;2.28;1.90;;;;;;;20.83;100.00;96406.47;4969210;28;20233;-81
2022/08/02 08:03:06;;;;;;;3.20;1.90;;;;;;;21.14;100.00;96406.88;4962943;28;20220;-81
2022/08/02 08:05:33;;;;;;;2.15;1.63;;;;;;;21.49;100.00;96411.88;4969614;28;20225;-81
2022/08/02 08:08:02;;;;;;;4.97;1.70;;;;;;;21.68;100.00;96411.03;4970612;28;20224;-81
2022/08/02 08:10:29;;;;;;;2.42;1.80;;;;;;;21.98;100.00;96415.22;4973018;28;20185;-82
2022/08/02 08:12:56;;;;;;;3.30;1.98;;;;;;;22.08;100.00;96415.88;4974306;28;20288;-81
2022/08/02 08:15:23;;;;;;;5.25;2.60;;;;;;;22.19;100.00;96416.53;4974921;28;20295;-81
2022/08/02 08:17:51;;;;;;;4.25;2.08;;;;;;;22.50;100.00;96411.25;4964132;28;20209;-81
2022/08/02 08:20:18;;;;;;;3.53;2.13;;;;;;;22.64;100.00;96406.56;4985528;28;20225;-81
2022/08/02 08:22:45;;;;;;;3.83;2.33;;;;;;;22.87;100.00;96413.03;4959737;28;20211;-81
2022/08/02 08:25:13;;;;;;;3.92;2.20;;;;;;;22.98;99.30;96407.00;4959928;28;20196;-81
2022/08/02 08:27:48;;;;;;;7.10;2.03;;;;;;;23.16;97.87;96407.16;4972657;28;20224;-81
2022/08/02 08:30:15;;;;;;;4.65;2.17;;;;;;;23.36;97.09;96398.47;4965676;28;20212;-81
2022/08/02 08:32:42;;;;;;;3.92;2.50;;;;;;;23.57;95.56;96396.06;4968085;28;20197;-81
2022/08/02 08:35:10;;;;;;;3.47;2.30;;;;;;;23.70;92.69;96390.50;4974409;28;20220;-81
2022/08/02 08:37:37;;;;;;;2.33;2.05;;;;;;;23.77;93.27;96393.63;4961658;28;20201;-81
2022/08/02 08:40:05;;;;;;;3.05;2.28;;;;;;;23.86;94.97;96398.41;4972774;28;20211;-81
2022/08/02 08:42:34;;;;;;;5.07;2.17;;;;;;;23.85;95.09;96394.81;4968154;28;20212;-81
2022/08/02 08:45:01;;;;;;;3.35;2.42;;;;;;;23.90;93.46;96396.66;4963415;28;20224;-81
2022/08/02 08:47:34;;;;;;;3.20;2.20;;;;;;;23.94;91.80;96397.63;4970395;28;20224;-81
2022/08/02 08:50:04;;;;;;;2.60;2.40;;;;;;;23.99;92.10;96403.81;4962123;28;20213;-81
2022/08/02 08:52:36;;;;;;;4.75;2.35;;;;;;;23.92;91.18;96389.66;4971343;28;20222;-81
2022/08/02 08:55:04;;;;;;;2.08;1.83;;;;;;;24.03;90.77;96393.81;4970710;28;20210;-81
2022/08/02 08:57:35;;;;;;;3.63;2.20;;;;;;;24.20;89.72;96392.28;4969773;28;20232;-81
2022/08/02 09:00:02;;;;;;;4.65;2.03;;;;;;;24.41;89.73;96390.66;4966291;28;20307;-81
2022/08/02 09:02:30;;;;;;;3.92;1.90;;;;;;;24.58;89.04;96395.44;4971006;28;20212;-81
2022/08/02 09:04:58;;;;;;;3.78;1.98;;;;;;;24.66;86.49;96398.22;4971891;28;20207;-81
2022/08/02 09:07:25;;;;;;;2.95;2.00;;;;;;;24.67;84.37;96388.78;4971789;28;20213;-81
2022/08/02 09:09:52;;;;;;;3.95;1.95;;;;;;;24.65;83.91;96402.13;4970268;28;20213;-81
2022/08/02 09:12:23;;;;;;;4.47;2.00;;;;;;;24.75;84.63;96409.31;4965180;28;20205;-81
2022/08/02 09:14:52;;;;;;;3.03;2.20;;;;;;;24.85;84.31;96409.00;4956665;28;20276;-81
2022/08/02 09:17:19;;;;;;;2.70;2.20;;;;;;;24.72;84.95;96405.22;4959580;28;20247;-82
2022/08/02 09:19:47;;;;;;;3.35;2.05;;;;;;;24.84;86.08;96401.84;4966530;28;20258;-81
2022/08/02 09:22:14;;;;;;;2.58;2.20;;;;;;;24.91;80.86;96405.00;4965040;28;20255;-82
2022/08/02 09:24:44;;;;;;;2.03;1.83;;;;;;;24.86;79.35;96400.38;4963875;28;20205;-81
2022/08/02 09:27:13;;;;;;;3.15;2.42;;;;;;;24.87;80.70;96392.91;4965283;28;20239;-81
2022/08/02 09:29:41;;;;;;;3.38;2.25;;;;;;;25.07;78.87;96394.31;4966030;28;20240;-81
2022/08/02 09:32:10;;;;;;;4.03;2.20;;;;;;;25.31;76.91;96393.84;4954773;28;20300;-82
2022/08/02 09:34:48;;;;;;;3.78;2.13;;;;;;;25.37;76.27;96393.38;4960453;28;20610;-81
2022/08/02 09:37:23;;;;;;;4.88;2.20;;;;;;;25.47;74.52;96392.25;4956201;28;20212;-82
2022/08/02 09:39:50;;;;;;;2.20;1.80;;;;;;;25.45;74.21;96391.75;4972723;28;20200;-82
2022/08/02 09:42:17;;;;;;;4.15;2.50;;;;;;;25.22;73.20;96383.59;4966771;28;20202;-81
2022/08/02 09:44:54;;;;;;;4.50;2.22;;;;;;;24.91;73.39;96390.34;4961713;28;20297;-81
2022/08/02 09:47:23;;;;;;;2.97;2.67;;;;;;;24.85;76.06;96390.47;4970966;28;20273;-81
2022/08/02 09:49:50;;;;;;;5.70;2.55;;;;;;;25.08;77.17;96384.91;4959211;28;20202;-81
2022/08/02 09:52:23;;;;;;;3.40;2.90;;;;;;;25.36;78.25;96391.75;4972323;28;20248;-81
2022/08/02 09:54:50;;;;;;;4.00;2.28;;;;;;;25.54;75.27;96387.84;4962226;28;20213;-81
2022/08/02 09:57:27;;;;;;;4.50;2.10;;;;;;;25.69;74.73;96383.81;4981737;28;20259;-81
2022/08/02 09:59:55;;;;;;;2.60;2.22;;;;;;;25.78;77.65;96386.56;4970944;28;20204;-81
2022/08/02 10:02:25;;;;;;;3.53;2.38;;;;;;;25.91;76.50;96396.66;4963224;28;20223;-81
2022/08/02 10:04:52;;;;;;;2.80;2.38;;;;;;;25.78;77.25;96381.84;4960515;28;20224;-81
2022/08/02 10:07:20;;;;;;;2.75;2.20;;;;;;;25.92;75.71;96382.50;4965041;28;20235;-81
2022/08/02 10:09:48;;;;;;;3.38;2.47;;;;;;;26.04;77.69;96387.34;4970999;28;20457;-81
2022/08/02 10:12:15;;;;;;;3.72;2.40;;;;;;;26.04;77.18;96381.81;4968171;28;20205;-81
2022/08/02 10:14:42;;;;;;;4.97;2.67;;;;;;;26.21;74.74;96381.78;4965354;28;20209;-81
2022/08/02 10:17:10;;;;;;;2.65;2.30;;;;;;;26.25;74.78;96373.63;4957208;28;20212;-81
2022/08/02 10:19:38;;;;;;;2.65;2.45;;;;;;;26.37;74.75;96384.84;4958544;28;20233;-81
2022/08/02 10:22:09;;;;;;;3.17;2.22;;;;;;;26.52;74.49;96369.69;4966305;28;20197;-80
2022/08/02 10:24:38;;;;;;;2.38;2.17;;;;;;;26.59;73.71;96367.19;4974453;28;20228;-80
2022/08/02 10:27:07;;;;;;;2.33;2.05;;;;;;;26.76;72.33;96372.66;4963184;28;20208;-80
2022/08/02 10:29:36;;;;;;;2.50;2.30;;;;;;;26.89;71.69;96365.25;4965340;28;20213;-81
2022/08/02 10:32:06;;;;;;;2.92;2.30;;;;;;;26.91;69.15;96369.34;4957676;28;20305;-81
2022/08/02 10:34:37;;;;;;;3.10;2.60;;;;;;;26.68;71.19;96354.13;4962750;28;20209;-81
2022/08/02 10:37:08;;;;;;;3.50;2.33;;;;;;;26.59;73.51;96350.59;4985223;28;20208;-80
2022/08/02 10:39:39;;;;;;;2.70;2.50;;;;;;;26.56;71.55;96351.25;4981033;28;20304;-80
2022/08/02 10:42:07;;;;;;;3.67;2.42;;;;;;;26.65;73.09;96354.78;4966748;28;20216;-81
2022/08/02 10:44:35;;;;;;;2.53;2.33;;;;;;;26.88;72.11;96358.88;4964296;28;20235;-81
2022/08/02 10:47:24;;;;;;;2.63;2.30;;;;;;;27.18;69.43;96356.97;4955061;28;20202;-81
2022/08/02 10:49:53;;;;;;;2.53;2.30;;;;;;;27.39;68.24;96357.75;4966220;28;20299;-81
2022/08/02 10:52:23;;;;;;;4.50;2.35;;;;;;;27.24;69.04;96346.47;4952590;28;20197;-81
2022/08/02 10:54:55;;;;;;;2.97;2.60;;;;;;;27.10;70.26;96344.78;4968189;28;20264;-81
2022/08/02 10:57:24;;;;;;;3.65;2.53;;;;;;;27.31;70.04;96346.75;4960138;28;20322;-81
2022/08/02 10:59:54;;;;;;;2.65;2.25;;;;;;;27.49;68.69;96346.28;4967918;28;20202;-81
2022/08/02 11:02:36;;;;;;;2.90;2.30;;;;;;;27.68;68.14;96340.28;4960968;28;20217;-81
2022/08/02 11:05:14;;;;;;;2.47;2.15;;;;;;;27.88;66.59;96335.03;4976515;28;20219;-81
2022/08/02 11:07:44;;;;;;;4.68;2.53;;;;;;;28.08;65.66;96329.41;4959478;28;20220;-81
2022/08/02 11:10:31;;;;;;;3.15;2.30;;;;;;;27.86;65.83;96330.63;4964779;28;20284;-81
2022/08/02 11:13:07;;;;;;;2.70;2.17;;;;;;;28.06;64.48;96322.59;4959973;28;20252;-81
2022/08/02 11:15:55;;;;;;;4.10;2.50;;;;;;;28.20;64.69;96315.59;4964560;28;20248;-81
2022/08/02 11:18:43;;;;;;;2.63;2.40;;;;;;;28.33;64.99;96313.66;4978048;28;20212;-80
2022/08/02 11:21:26;;;;;;;3.85;2.47;;;;;;;28.55;64.82;96321.56;4959175;28;20240;-80
2022/08/02 11:23:54;;;;;;;3.28;2.67;;;;;;;28.67;64.03;96304.06;4976901;28;20209;-81
2022/08/02 11:26:46;;;;;;;3.80;2.60;;;;;;;28.72;62.44;96308.59;4965199;28;20209;-81
2022/08/02 11:29:13;;;;;;;3.38;2.63;;;;;;;28.66;63.77;96307.22;4959064;28;20307;-81
2022/08/02 11:31:41;;;;;;;2.67;2.47;;;;;;;28.60;64.56;96295.50;4967670;28;20295;-81
2022/08/02 11:34:09;;;;;;;2.78;2.58;;;;;;;28.56;64.32;96292.63;4967533;28;20236;-82
2022/08/02 11:36:46;;;;;;;2.85;2.63;;;;;;;28.74;66.09;96300.72;4961988;28;20213;-81